Time;durP1;ratioP1;P1;durP2;ratioP2;P2;SDS_P1;SDS_P2;PMS_P1;PMS_P2;Temp;Humidity;BMP_temperature;BMP_pressure;BME280_temperature;BME280_humidity;BME280_pressure;Samples;Min_cycle;Max_cycle;Signal;HPM_P1;HPM_P2
2022/05/18 00:00:27;;;;;;;;;;;17.30;99.90;;;;;;4941850;29;20440;-62
2022/05/18 00:02:54;;;;;;;;;;;17.30;99.90;;;;;;4949106;29;19919;-62
2022/05/18 00:05:20;;;;;;;;;;;17.30;99.90;;;;;;4951462;28;20391;-62
2022/05/18 00:07:45;;;;;;;;;;;17.20;99.90;;;;;;4935803;28;19927;-62
2022/05/18 00:10:11;;;;;;;;;;;17.20;99.90;;;;;;4945540;28;20638;-63
2022/05/18 00:12:47;;;;;;;;;;;17.20;99.90;;;;;;4950634;28;20001;-64
2022/05/18 00:15:14;;;;;;;;;;;17.20;99.90;;;;;;4942491;28;19958;-64
2022/05/18 00:17:39;;;;;;;;;;;17.20;99.90;;;;;;4939959;29;20387;-64
2022/05/18 00:20:05;;;;;;;;;;;17.20;99.90;;;;;;4950501;28;20016;-64
2022/05/18 00:22:30;;;;;;;;;;;17.10;99.90;;;;;;4948050;28;19918;-63
2022/05/18 00:24:58;;;;;;;;;;;17.10;99.90;;;;;;4947458;29;19929;-62
2022/05/18 00:27:24;;;;;;;;;;;17.10;99.90;;;;;;4951010;28;19930;-63
2022/05/18 00:29:49;;;;;;;;;;;17.10;99.90;;;;;;4950346;28;19930;-64
2022/05/18 00:32:15;;;;;;;;;;;17.10;99.90;;;;;;4942106;28;19933;-64
2022/05/18 00:34:41;;;;;;;;;;;17.10;99.90;;;;;;4942953;29;19922;-63
2022/05/18 00:37:06;;;;;;;;;;;17.00;99.90;;;;;;4950897;28;19926;-64
2022/05/18 00:39:32;;;;;;;;;;;17.00;99.90;;;;;;4948609;28;19968;-64
2022/05/18 00:41:57;;;;;;;;;;;17.10;99.90;;;;;;4939868;29;19922;-63
2022/05/18 00:44:23;;;;;;;;;;;17.00;99.90;;;;;;4950195;28;20399;-64
2022/05/18 00:46:48;;;;;;;;;;;17.00;99.90;;;;;;4948551;28;19919;-63
2022/05/18 00:49:14;;;;;;;;;;;17.00;99.90;;;;;;4934516;29;19922;-64
2022/05/18 00:51:45;;;;;;;;;;;17.00;99.90;;;;;;4947761;29;20423;-63
2022/05/18 00:54:13;;;;;;;;;;;17.00;99.90;;;;;;4950578;28;19922;-63
2022/05/18 00:56:42;;;;;;;;;;;16.90;99.90;;;;;;4944655;28;20008;-64
2022/05/18 00:59:16;;;;;;;;;;;16.90;99.90;;;;;;4949534;28;19922;-64
2022/05/18 01:01:42;;;;;;;;;;;16.90;99.90;;;;;;4950450;28;19922;-64
2022/05/18 01:04:09;;;;;;;;;;;16.90;99.90;;;;;;4950021;28;19960;-65
2022/05/18 01:06:44;;;;;;;;;;;16.90;99.90;;;;;;4945293;29;19922;-64
2022/05/18 01:09:13;;;;;;;;;;;16.90;99.90;;;;;;4943659;29;20406;-64
2022/05/18 01:11:39;;;;;;;;;;;16.80;99.90;;;;;;4950235;28;19925;-64
2022/05/18 01:14:09;;;;;;;;;;;16.80;99.90;;;;;;4945761;28;19919;-63
2022/05/18 01:16:35;;;;;;;;;;;16.80;99.90;;;;;;4950214;28;19926;-64
2022/05/18 01:19:01;;;;;;;;;;;16.70;99.90;;;;;;4950803;28;20600;-64
2022/05/18 01:21:29;;;;;;;;;;;16.70;99.90;;;;;;4950698;28;19922;-65
2022/05/18 01:24:04;;;;;;;;;;;16.70;99.90;;;;;;4934568;28;19923;-64
2022/05/18 01:26:46;;;;;;;;;;;16.60;99.90;;;;;;4946144;28;19933;-63
2022/05/18 01:29:13;;;;;;;;;;;16.60;99.90;;;;;;4929578;29;20411;-64
2022/05/18 01:31:55;;;;;;;;;;;16.50;99.90;;;;;;4936117;29;19918;-64
2022/05/18 01:34:22;;;;;;;;;;;16.50;99.90;;;;;;4949535;28;20328;-64
2022/05/18 01:36:48;;;;;;;;;;;16.40;99.90;;;;;;4950003;28;19954;-64
2022/05/18 01:39:25;;;;;;;;;;;16.40;99.90;;;;;;4945009;28;19922;-64
2022/05/18 01:42:11;;;;;;;;;;;16.30;99.90;;;;;;4945584;29;19962;-64
2022/05/18 01:44:38;;;;;;;;;;;16.30;99.90;;;;;;4952934;28;20608;-64
2022/05/18 01:47:03;;;;;;;;;;;16.20;99.90;;;;;;4946880;28;20009;-64
2022/05/18 01:49:29;;;;;;;;;;;16.20;99.90;;;;;;4944155;29;19961;-64
2022/05/18 01:51:55;;;;;;;;;;;16.20;99.90;;;;;;4953481;28;19929;-65
2022/05/18 01:54:21;;;;;;;;;;;16.10;99.90;;;;;;4953645;28;19970;-64
2022/05/18 01:56:46;;;;;;;;;;;16.10;99.90;;;;;;4942596;28;19972;-64
2022/05/18 01:59:12;;;;;;;;;;;16.10;99.90;;;;;;4952618;28;20064;-64
2022/05/18 02:01:38;;;;;;;;;;;16.10;99.90;;;;;;4953973;28;19918;-64
2022/05/18 02:04:04;;;;;;;;;;;16.00;99.90;;;;;;4942432;28;20042;-64
2022/05/18 02:06:31;;;;;;;;;;;16.00;99.90;;;;;;4953242;28;19929;-64
2022/05/18 02:08:58;;;;;;;;;;;16.00;99.90;;;;;;4953769;28;20340;-65
2022/05/18 02:11:24;;;;;;;;;;;15.90;99.90;;;;;;4953600;28;20447;-64
2022/05/18 02:13:51;;;;;;;;;;;15.90;99.90;;;;;;4934847;28;19990;-64
2022/05/18 02:16:16;;;;;;;;;;;15.90;99.90;;;;;;4947765;28;19934;-64
2022/05/18 02:18:42;;;;;;;;;;;15.80;99.90;;;;;;4953450;28;19923;-64
2022/05/18 02:21:08;;;;;;;;;;;15.80;99.90;;;;;;4939240;28;20435;-64
2022/05/18 02:23:35;;;;;;;;;;;15.80;99.90;;;;;;4949535;28;19922;-65
2022/05/18 02:26:07;;;;;;;;;;;15.70;99.90;;;;;;4953431;28;19925;-64
2022/05/18 02:28:33;;;;;;;;;;;15.70;99.90;;;;;;4950160;28;20860;-64
2022/05/18 02:30:58;;;;;;;;;;;15.70;99.90;;;;;;4952489;28;19926;-64
2022/05/18 02:33:24;;;;;;;;;;;15.60;99.90;;;;;;4952359;28;19922;-64
2022/05/18 02:35:49;;;;;;;;;;;15.60;99.90;;;;;;4951091;28;19922;-61
2022/05/18 02:38:15;;;;;;;;;;;15.50;99.90;;;;;;4938541;29;19930;-64
2022/05/18 02:40:40;;;;;;;;;;;15.40;99.90;;;;;;4950133;29;19922;-64
2022/05/18 02:43:06;;;;;;;;;;;15.30;99.90;;;;;;4951449;29;19977;-63
2022/05/18 02:45:31;;;;;;;;;;;15.30;99.90;;;;;;4939654;28;19926;-62
2022/05/18 02:47:57;;;;;;;;;;;15.30;99.90;;;;;;4946080;29;19929;-62
2022/05/18 02:50:22;;;;;;;;;;;15.20;99.90;;;;;;4953216;28;19973;-62
2022/05/18 02:52:48;;;;;;;;;;;15.10;99.90;;;;;;4940743;28;20487;-63
2022/05/18 02:57:57;;;;;;;;;;;14.90;99.90;;;;;;4952118;29;20311;-62
2022/05/18 03:00:23;;;;;;;;;;;14.80;99.90;;;;;;4952546;28;20389;-63
2022/05/18 03:02:48;;;;;;;;;;;14.80;99.90;;;;;;4943455;28;19923;-62
2022/05/18 03:05:14;;;;;;;;;;;14.70;99.90;;;;;;4941350;28;20449;-62
2022/05/18 03:07:40;;;;;;;;;;;14.60;99.90;;;;;;4952662;28;19969;-62
2022/05/18 03:10:06;;;;;;;;;;;14.60;99.90;;;;;;4943080;28;19919;-62
2022/05/18 03:12:31;;;;;;;;;;;14.60;99.90;;;;;;4944962;29;19923;-62
2022/05/18 03:14:56;;;;;;;;;;;14.50;99.90;;;;;;4951843;28;20443;-65
2022/05/18 03:17:22;;;;;;;;;;;14.50;99.90;;;;;;4952772;28;19933;-63
2022/05/18 03:19:47;;;;;;;;;;;14.50;99.90;;;;;;4944176;28;19972;-63
2022/05/18 03:24:57;;;;;;;;;;;14.50;99.90;;;;;;4951372;28;19918;-62
2022/05/18 03:27:23;;;;;;;;;;;14.50;99.90;;;;;;4945007;28;19922;-62
2022/05/18 03:29:48;;;;;;;;;;;14.60;99.90;;;;;;4940079;28;19987;-65
2022/05/18 03:32:15;;;;;;;;;;;14.60;99.90;;;;;;4934578;29;20365;-65
2022/05/18 03:34:40;;;;;;;;;;;14.60;99.90;;;;;;4947997;29;19925;-63
2022/05/18 03:37:06;;;;;;;;;;;14.50;99.90;;;;;;4941341;28;19926;-63
2022/05/18 03:39:31;;;;;;;;;;;14.40;99.90;;;;;;4949809;28;19923;-63
2022/05/18 03:41:57;;;;;;;;;;;14.30;99.90;;;;;;4951237;28;19926;-63
2022/05/18 03:44:23;;;;;;;;;;;14.10;99.90;;;;;;4939063;28;20451;-62
2022/05/18 03:46:48;;;;;;;;;;;13.90;99.90;;;;;;4950884;28;19923;-62
2022/05/18 03:49:14;;;;;;;;;;;13.70;99.90;;;;;;4949987;29;19926;-63
2022/05/18 03:51:39;;;;;;;;;;;13.60;99.90;;;;;;4951543;28;20308;-64
2022/05/18 03:54:06;;;;;;;;;;;13.60;99.90;;;;;;4939120;28;19923;-63
2022/05/18 03:56:32;;;;;;;;;;;13.60;99.90;;;;;;4951464;28;19934;-62
2022/05/18 03:58:59;;;;;;;;;;;13.60;99.90;;;;;;4950382;28;19922;-64
2022/05/18 04:01:26;;;;;;;;;;;13.70;99.90;;;;;;4943521;28;19922;-62
2022/05/18 04:03:52;;;;;;;;;;;13.80;99.90;;;;;;4948657;28;19918;-62
2022/05/18 04:06:18;;;;;;;;;;;13.80;99.90;;;;;;4951078;28;20015;-64
2022/05/18 04:08:44;;;;;;;;;;;13.80;99.90;;;;;;4947815;28;20021;-62
2022/05/18 04:11:10;;;;;;;;;;;13.70;99.90;;;;;;4949932;29;20325;-63
2022/05/18 04:13:36;;;;;;;;;;;13.60;99.90;;;;;;4950618;28;19984;-64
2022/05/18 04:16:02;;;;;;;;;;;13.60;99.90;;;;;;4947788;29;20332;-62
2022/05/18 04:18:27;;;;;;;;;;;13.60;99.90;;;;;;4938343;28;19923;-62
2022/05/18 04:20:54;;;;;;;;;;;13.60;99.90;;;;;;4950089;29;19922;-63
2022/05/18 04:23:20;;;;;;;;;;;13.70;99.90;;;;;;4950404;28;20359;-62
2022/05/18 04:25:46;;;;;;;;;;;13.70;99.90;;;;;;4942885;28;19925;-62
2022/05/18 04:28:14;;;;;;;;;;;13.70;99.90;;;;;;4946322;28;19990;-62
2022/05/18 04:30:44;;;;;;;;;;;13.70;99.90;;;;;;4937539;28;19919;-62
2022/05/18 04:33:15;;;;;;;;;;;13.70;99.90;;;;;;4930561;28;19922;-62
2022/05/18 04:35:41;;;;;;;;;;;13.70;99.90;;;;;;4939192;29;20001;-62
2022/05/18 04:38:07;;;;;;;;;;;13.90;99.90;;;;;;4950071;28;20432;-62
2022/05/18 04:40:32;;;;;;;;;;;13.90;99.90;;;;;;4950233;28;19933;-62
2022/05/18 04:42:58;;;;;;;;;;;14.00;99.90;;;;;;4941450;28;19923;-62
2022/05/18 04:45:24;;;;;;;;;;;14.10;99.90;;;;;;4936840;28;20352;-62
2022/05/18 04:47:50;;;;;;;;;;;14.30;99.90;;;;;;5001281;23;20315;-64
2022/05/18 04:50:16;;;;;;;;;;;14.40;99.90;;;;;;4966021;28;19928;-64
2022/05/18 04:52:41;;;;;;;;;;;14.50;99.90;;;;;;4966273;28;19921;-63
2022/05/18 04:55:07;;;;;;;;;;;14.60;99.90;;;;;;4968733;28;19922;-63
2022/05/18 04:57:33;;;;;;;;;;;14.70;99.90;;;;;;4951731;28;19926;-64
2022/05/18 04:59:58;;;;;;;;;;;14.90;99.90;;;;;;4940754;29;19922;-64
2022/05/18 05:02:24;;;;;;;;;;;15.00;99.90;;;;;;4949808;28;19926;-64
2022/05/18 05:04:49;;;;;;;;;;;15.10;99.90;;;;;;4950342;28;19929;-64
2022/05/18 05:07:14;;;;;;;;;;;15.20;99.90;;;;;;4943337;28;20337;-64
2022/05/18 05:09:40;;;;;;;;;;;15.30;99.90;;;;;;4941475;29;19973;-63
2022/05/18 05:12:07;;;;;;;;;;;15.40;99.90;;;;;;4949965;28;19977;-63
2022/05/18 05:14:36;;;;;;;;;;;15.60;99.90;;;;;;4946509;28;19931;-64
2022/05/18 05:17:01;;;;;;;;;;;15.70;99.90;;;;;;4936671;28;19922;-64
2022/05/18 05:19:27;;;;;;;;;;;15.80;99.90;;;;;;4952203;29;19966;-64
2022/05/18 05:21:52;;;;;;;;;;;15.90;99.90;;;;;;4952713;28;19926;-64
2022/05/18 05:24:18;;;;;;;;;;;16.00;99.90;;;;;;4936341;28;19964;-64
2022/05/18 05:26:43;;;;;;;;;;;16.10;99.90;;;;;;4945697;28;19925;-63
2022/05/18 05:29:10;;;;;;;;;;;16.30;99.90;;;;;;4953898;28;20373;-64
2022/05/18 05:31:36;;;;;;;;;;;16.40;99.90;;;;;;4952570;28;19918;-62
2022/05/18 05:34:01;;;;;;;;;;;16.50;99.90;;;;;;4934926;28;19918;-64
2022/05/18 05:36:27;;;;;;;;;;;16.60;99.90;;;;;;4948752;29;19961;-64
2022/05/18 05:38:53;;;;;;;;;;;16.70;99.90;;;;;;4953281;28;20304;-64
2022/05/18 05:41:19;;;;;;;;;;;16.90;99.90;;;;;;4949090;28;19924;-67
2022/05/18 05:43:44;;;;;;;;;;;17.00;99.90;;;;;;4945201;28;19926;-66
2022/05/18 05:46:14;;;;;;;;;;;17.10;99.90;;;;;;4950211;29;20004;-66
2022/05/18 05:48:41;;;;;;;;;;;17.20;99.90;;;;;;4950766;29;19918;-66
2022/05/18 05:51:10;;;;;;;;;;;17.40;99.90;;;;;;4948222;28;19962;-66
2022/05/18 05:53:36;;;;;;;;;;;17.50;99.90;;;;;;4948672;28;19918;-66
2022/05/18 05:56:02;;;;;;;;;;;17.70;99.90;;;;;;4949064;28;20323;-67
2022/05/18 05:58:32;;;;;;;;;;;17.70;99.90;;;;;;4950683;28;19919;-68
2022/05/18 06:00:58;;;;;;;;;;;17.90;99.90;;;;;;4951149;29;19923;-68
2022/05/18 06:03:23;;;;;;;;;;;18.00;99.90;;;;;;4953327;28;19918;-67
2022/05/18 06:05:49;;;;;;;;;;;18.10;99.90;;;;;;4942125;28;19926;-66
2022/05/18 06:08:14;;;;;;;;;;;18.20;99.90;;;;;;4943649;28;19922;-65
2022/05/18 06:10:40;;;;;;;;;;;18.30;99.90;;;;;;4947357;29;19965;-62
2022/05/18 06:13:06;;;;;;;;;;;18.40;99.90;;;;;;4948721;28;19922;-62
2022/05/18 06:15:32;;;;;;;;;;;18.50;99.90;;;;;;4946271;29;19949;-62
2022/05/18 06:17:57;;;;;;;;;;;18.50;99.90;;;;;;4951743;28;19918;-61
2022/05/18 06:20:23;;;;;;;;;;;18.60;99.90;;;;;;4952023;28;20281;-62
2022/05/18 06:22:48;;;;;;;;;;;18.70;99.90;;;;;;4947402;28;19926;-62
2022/05/18 06:25:15;;;;;;;;;;;18.70;99.90;;;;;;4950567;29;19922;-62
2022/05/18 06:27:41;;;;;;;;;;;18.90;99.90;;;;;;4954187;28;19918;-62
2022/05/18 06:30:08;;;;;;;;;;;18.90;99.90;;;;;;4945412;28;19918;-62
2022/05/18 06:32:33;;;;;;;;;;;19.00;99.90;;;;;;4951648;28;20289;-62
2022/05/18 06:34:59;;;;;;;;;;;19.00;99.90;;;;;;4955193;28;19929;-62
2022/05/18 06:37:25;;;;;;;;;;;19.10;99.90;;;;;;4955180;28;20053;-62
2022/05/18 06:39:50;;;;;;;;;;;19.30;99.90;;;;;;4951361;28;19918;-62
2022/05/18 06:42:16;;;;;;;;;;;19.40;99.90;;;;;;4951466;28;19926;-62
2022/05/18 06:44:41;;;;;;;;;;;19.50;99.90;;;;;;4954791;28;20233;-62
2022/05/18 06:47:07;;;;;;;;;;;19.60;99.90;;;;;;4946916;28;19925;-62
2022/05/18 06:49:33;;;;;;;;;;;19.70;99.90;;;;;;4945814;29;19918;-62
2022/05/18 06:51:58;;;;;;;;;;;19.80;99.90;;;;;;4954935;28;19922;-62
2022/05/18 06:54:24;;;;;;;;;;;19.90;99.90;;;;;;4952235;28;19926;-62
2022/05/18 06:56:49;;;;;;;;;;;20.00;99.90;;;;;;4954168;28;19922;-62
2022/05/18 06:59:15;;;;;;;;;;;20.00;99.90;;;;;;4954060;29;19918;-63
2022/05/18 07:01:41;;;;;;;;;;;20.20;99.90;;;;;;4954698;28;19919;-62
2022/05/18 07:04:09;;;;;;;;;;;20.20;99.90;;;;;;4949249;28;19924;-62
2022/05/18 07:06:36;;;;;;;;;;;20.30;99.90;;;;;;4938558;28;19930;-62
2022/05/18 07:09:04;;;;;;;;;;;20.40;99.90;;;;;;4946576;29;19919;-62
2022/05/18 07:11:29;;;;;;;;;;;20.50;99.90;;;;;;4929405;29;19923;-62
2022/05/18 07:13:56;;;;;;;;;;;20.60;99.90;;;;;;4946847;29;19932;-62
2022/05/18 07:16:23;;;;;;;;;;;20.70;99.90;;;;;;4951053;28;20017;-62
2022/05/18 07:18:48;;;;;;;;;;;20.80;99.90;;;;;;4950638;28;19923;-63
2022/05/18 07:21:14;;;;;;;;;;;20.90;99.90;;;;;;4938351;28;20686;-62
2022/05/18 07:23:40;;;;;;;;;;;21.00;99.90;;;;;;4941989;28;20000;-63
2022/05/18 07:26:06;;;;;;;;;;;21.10;99.90;;;;;;4947313;28;19922;-62
2022/05/18 07:28:31;;;;;;;;;;;21.30;99.90;;;;;;4935638;28;20479;-61
2022/05/18 07:30:57;;;;;;;;;;;21.40;99.90;;;;;;4929409;28;19923;-62
2022/05/18 07:33:24;;;;;;;;;;;21.50;99.90;;;;;;4941893;28;19956;-63
2022/05/18 07:35:50;;;;;;;;;;;21.60;99.90;;;;;;4949532;28;19926;-61
2022/05/18 07:38:18;;;;;;;;;;;21.70;99.90;;;;;;4942978;28;20730;-62
2022/05/18 07:40:43;;;;;;;;;;;21.80;99.90;;;;;;4946718;29;19922;-62
2022/05/18 07:43:08;;;;;;;;;;;21.80;99.90;;;;;;4948657;28;19922;-62
2022/05/18 07:45:35;;;;;;;;;;;21.90;99.90;;;;;;4937374;28;19922;-62
2022/05/18 07:48:00;;;;;;;;;;;22.00;99.90;;;;;;4937754;28;20277;-62
2022/05/18 07:50:26;;;;;;;;;;;22.20;99.90;;;;;;4949666;28;20420;-62
2022/05/18 07:52:52;;;;;;;;;;;22.30;99.90;;;;;;4945199;28;19934;-63
2022/05/18 07:55:18;;;;;;;;;;;22.40;99.90;;;;;;4948417;29;19930;-63
2022/05/18 07:57:44;;;;;;;;;;;22.40;99.90;;;;;;4950071;28;20554;-63
2022/05/18 08:00:11;;;;;;;;;;;22.50;99.90;;;;;;4950148;28;19922;-63
2022/05/18 08:02:37;;;;;;;;;;;22.60;99.90;;;;;;4940075;28;19926;-63
2022/05/18 08:05:04;;;;;;;;;;;22.70;99.90;;;;;;4930072;28;19956;-63
2022/05/18 08:07:30;;;;;;;;;;;22.80;99.90;;;;;;4931266;29;19939;-62
2022/05/18 08:15:24;;;;;;;;;;;23.00;99.90;;;;;;4949551;29;19927;-62
2022/05/18 08:17:49;;;;;;;;;;;23.10;99.90;;;;;;4944562;28;19974;-62
2022/05/18 08:20:17;;;;;;;;;;;23.10;99.90;;;;;;4946992;28;20013;-62
2022/05/18 08:22:43;;;;;;;;;;;23.20;99.90;;;;;;4938990;28;19923;-62
2022/05/18 08:25:11;;;;;;;;;;;23.30;99.90;;;;;;4941003;29;19922;-62
2022/05/18 08:27:41;;;;;;;;;;;23.30;99.90;;;;;;4940949;28;19918;-62
2022/05/18 08:30:07;;;;;;;;;;;23.40;99.90;;;;;;4947223;28;19962;-62
2022/05/18 08:32:32;;;;;;;;;;;23.50;99.90;;;;;;4947882;28;19965;-63
2022/05/18 08:34:58;;;;;;;;;;;23.60;99.90;;;;;;4942136;28;19923;-62
2022/05/18 08:37:24;;;;;;;;;;;23.60;99.90;;;;;;4942400;29;20349;-62
2022/05/18 08:39:50;;;;;;;;;;;23.70;99.90;;;;;;4949516;28;19926;-62
2022/05/18 08:42:16;;;;;;;;;;;23.80;99.90;;;;;;4947565;28;19919;-63
2022/05/18 08:44:41;;;;;;;;;;;23.90;99.90;;;;;;4938907;29;19942;-61
2022/05/18 08:47:10;;;;;;;;;;;23.90;99.90;;;;;;4907993;28;1072667;-62
2022/05/18 08:49:39;;;;;;;;;;;24.00;99.90;;;;;;4950222;28;19985;-62
2022/05/18 08:52:14;;;;;;;;;;;24.10;99.90;;;;;;4952708;28;19923;-61
2022/05/18 08:54:52;;;;;;;;;;;24.20;99.90;;;;;;4944512;28;19926;-63
2022/05/18 08:57:19;;;;;;;;;;;24.30;99.90;;;;;;4940516;29;20583;-61
2022/05/18 08:59:46;;;;;;;;;;;24.40;99.90;;;;;;4948859;28;20396;-62
2022/05/18 09:02:15;;;;;;;;;;;24.50;99.90;;;;;;4947615;28;19941;-61
2022/05/18 09:04:46;;;;;;;;;;;24.50;99.90;;;;;;4952633;28;20292;-61
2022/05/18 09:07:15;;;;;;;;;;;24.60;99.90;;;;;;4951807;28;20009;-59
2022/05/18 09:12:31;;;;;;;;;;;24.60;99.90;;;;;;4952774;29;19918;-61
2022/05/18 09:14:57;;;;;;;;;;;24.60;99.90;;;;;;4951759;29;19922;-61
2022/05/18 09:17:31;;;;;;;;;;;24.70;99.90;;;;;;4942575;28;20285;-60
2022/05/18 09:20:06;;;;;;;;;;;24.80;99.90;;;;;;4947130;29;20021;-62
2022/05/18 09:22:32;;;;;;;;;;;24.90;99.90;;;;;;4941207;29;19926;-62
2022/05/18 09:25:13;;;;;;;;;;;25.00;98.70;;;;;;4951983;29;19919;-61
2022/05/18 09:27:53;;;;;;;;;;;25.10;99.90;;;;;;4952741;28;19918;-66
2022/05/18 09:30:28;;;;;;;;;;;25.20;99.90;;;;;;4938414;28;19929;-63
2022/05/18 09:32:59;;;;;;;;;;;25.10;99.90;;;;;;4939798;29;19954;-63
2022/05/18 09:35:29;;;;;;;;;;;25.10;99.90;;;;;;4947181;28;19958;-64
2022/05/18 09:38:03;;;;;;;;;;;25.30;99.70;;;;;;4951545;28;19926;-62
2022/05/18 09:40:32;;;;;;;;;;;25.30;98.60;;;;;;4951992;28;20009;-63
2022/05/18 09:43:08;;;;;;;;;;;25.50;99.90;;;;;;4945461;28;19919;-62
2022/05/18 09:45:36;;;;;;;;;;;25.50;96.90;;;;;;4951787;28;19926;-63
2022/05/18 09:48:13;;;;;;;;;;;25.60;99.10;;;;;;4933280;29;19919;-63
2022/05/18 09:50:40;;;;;;;;;;;25.60;98.00;;;;;;4932847;29;20329;-64
2022/05/18 10:09:23;;;;;;;11.88;9.40;;;26.30;97.40;;;;;;5123621;28;20047;-61
2022/05/18 10:11:49;;;;;;;14.18;8.93;;;26.30;98.40;;;;;;5117916;28;20031;-63
2022/05/18 10:14:34;;;;;;;14.57;9.75;;;26.20;98.90;;;;;;5109662;28;20040;-60
2022/05/18 10:17:11;;;;;;;13.15;10.75;;;26.20;97.20;;;;;;5119457;28;20082;-63
2022/05/18 10:19:48;;;;;;;11.70;9.75;;;26.20;97.40;;;;;;5126637;28;20111;-64
2022/05/18 10:30:03;;;;;;;10.93;9.00;;;26.40;97.40;;;;;;5429277;23;20451;-63
2022/05/18 10:32:29;;;;;;;14.75;9.15;;;26.50;96.60;;;;;;4984103;28;20386;-63
2022/05/18 10:34:56;;;;;;;12.18;8.60;;;26.50;97.50;;;;;;4982008;28;20043;-63
2022/05/18 10:37:37;;;;;;;16.13;9.43;;;26.60;97.40;;;;;;4983020;28;20187;-63
2022/05/18 10:40:10;;;;;;;14.18;10.23;;;26.70;96.20;;;;;;4980062;28;20034;-63
2022/05/18 10:42:50;;;;;;;13.80;9.23;;;26.80;96.00;;;;;;4987804;28;20042;-63
2022/05/18 10:53:14;;;;;;;12.77;9.23;;;26.70;97.40;;;;;;5275968;23;20057;-63
2022/05/18 10:55:58;;;;;;;12.55;10.07;;;26.90;96.00;;;;;;5046040;28;20048;-64
2022/05/18 10:58:28;;;;;;;12.70;10.38;;;26.90;96.20;;;;;;5019991;28;20057;-64
2022/05/18 11:00:57;;;;;;;;;;;27.00;97.50;;;;;;5043122;28;20045;-64
2022/05/18 11:03:35;;;;;;;17.77;13.85;;;27.10;98.60;;;;;;4998139;28;19918;-63
2022/05/18 11:06:12;;;;;;;14.07;10.13;;;27.10;97.50;;;;;;5012967;28;20108;-65
2022/05/18 11:08:38;;;;;;;14.20;10.55;;;27.20;95.20;;;;;;5013407;28;20668;-65
2022/05/18 11:11:06;;;;;;;104.90;12.43;;;27.20;96.00;;;;;;5029281;22;20041;-61
2022/05/18 11:14:02;;;;;;;13.00;10.00;;;27.30;96.30;;;;;;4939670;28;20400;-61
2022/05/18 11:16:34;;;;;;;13.13;10.20;;;27.40;95.00;;;;;;4949911;29;20043;-61
2022/05/18 11:18:59;;;;;;;13.43;9.95;;;27.40;96.70;;;;;;4950784;29;20051;-61
2022/05/18 11:21:35;;;;;;;124.05;12.90;;;27.40;96.20;;;;;;4951873;29;20513;-61
2022/05/18 11:24:10;;;;;;;12.05;6.75;;;27.50;95.00;;;;;;4969199;28;20056;-62
2022/05/18 11:26:50;;;;;;;13.88;9.95;;;27.60;95.00;;;;;;4993040;28;20380;-62
2022/05/18 11:29:22;;;;;;;16.13;11.77;;;27.70;94.90;;;;;;4980321;28;20043;-63
2022/05/18 11:31:55;;;;;;;18.40;12.98;;;27.70;96.00;;;;;;4971541;28;20589;-62
2022/05/18 11:34:36;;;;;;;19.95;14.60;;;27.90;96.10;;;;;;4947108;28;20512;-61
2022/05/18 11:37:33;;;;;;;16.83;13.85;;;27.80;96.90;;;;;;4957176;28;20089;-63
2022/05/18 11:40:22;;;;;;;20.40;14.20;;;27.90;95.10;;;;;;4971776;28;20042;-63
2022/05/18 11:43:25;;;;;;;17.70;14.00;;;27.90;95.80;;;;;;4973644;28;20526;-63
2022/05/18 11:46:26;;;;;;;18.00;12.95;;;27.90;96.20;;;;;;4948886;28;20051;-63
2022/05/18 11:49:22;;;;;;;17.90;13.15;;;27.80;92.70;;;;;;4971108;28;20151;-64
2022/05/18 11:52:06;;;;;;;18.30;12.32;;;27.70;94.10;;;;;;4972866;28;20125;-63
2022/05/18 11:54:32;;;;;;;15.35;12.40;;;28.00;95.10;;;;;;4964480;28;20038;-64
2022/05/18 11:57:08;;;;;;;23.40;12.13;;;28.10;95.20;;;;;;4972511;28;20042;-64
2022/05/18 11:59:51;;;;;;;16.55;12.88;;;28.40;95.40;;;;;;4972838;28;20046;-63
2022/05/18 12:02:45;;;;;;;16.50;13.10;;;28.60;94.40;;;;;;4966576;28;20574;-64
2022/05/18 12:05:28;;;;;;;16.88;12.48;;;28.80;93.50;;;;;;4964383;28;20070;-63
2022/05/18 12:08:29;;;;;;;16.88;11.68;;;28.90;93.60;;;;;;4975135;28;20081;-64
2022/05/18 12:11:04;;;;;;;14.82;11.35;;;28.90;91.80;;;;;;4966611;28;20423;-63
2022/05/18 12:13:57;;;;;;;18.13;12.48;;;29.00;93.90;;;;;;4983270;28;20521;-63
2022/05/18 12:16:41;;;;;;;17.10;12.60;;;29.10;92.10;;;;;;4968050;28;20150;-65
2022/05/18 12:19:16;;;;;;;16.35;13.05;;;29.40;92.40;;;;;;4968074;28;20051;-63
2022/05/18 12:21:47;;;;;;;18.77;11.55;;;29.60;86.50;;;;;;4972123;28;20096;-64
2022/05/18 12:24:13;;;;;;;18.88;12.50;;;29.60;91.70;;;;;;4968450;28;20039;-62
2022/05/18 12:26:45;;;;;;;15.00;13.02;;;29.70;92.10;;;;;;4963349;28;20035;-64
2022/05/18 12:29:15;;;;;;;19.65;12.43;;;29.70;90.80;;;;;;4972790;28;20042;-64
2022/05/18 12:31:42;;;;;;;16.48;12.65;;;29.70;90.90;;;;;;4973281;28;20097;-64
2022/05/18 12:34:14;;;;;;;18.30;12.38;;;29.70;90.20;;;;;;4955339;28;20050;-64
2022/05/18 12:36:56;;;;;;;17.00;11.90;;;29.80;91.40;;;;;;4969583;28;20050;-64
2022/05/18 12:39:25;;;;;;;14.73;11.23;;;29.80;86.80;;;;;;4968273;28;20250;-64
2022/05/18 12:41:54;;;;;;;20.13;12.35;;;29.80;89.40;;;;;;4967272;28;20046;-63
2022/05/18 12:44:34;;;;;;;13.50;11.95;;;29.80;87.60;;;;;;4970151;28;20046;-65
2022/05/18 12:47:21;;;;;;;17.15;12.00;;;29.90;84.20;;;;;;4970384;28;20054;-65
2022/05/18 12:49:56;;;;;;;16.70;12.85;;;29.70;88.80;;;;;;4971433;28;20118;-66
2022/05/18 12:52:33;;;;;;;18.17;10.48;;;29.40;86.60;;;;;;4971196;28;20038;-66
2022/05/18 12:55:28;;;;;;;15.75;11.52;;;29.40;88.30;;;;;;4968856;28;20110;-64
2022/05/18 12:58:10;;;;;;;20.52;11.88;;;29.40;86.20;;;;;;4970394;28;20173;-63
2022/05/18 13:00:50;;;;;;;18.25;12.10;;;29.10;88.00;;;;;;4969071;28;20071;-62
2022/05/18 13:03:15;;;;;;;15.25;12.68;;;29.20;89.80;;;;;;4966016;28;20513;-64
2022/05/18 13:05:47;;;;;;;16.08;13.15;;;29.20;90.10;;;;;;4972007;28;20039;-64
2022/05/18 13:08:15;;;;;;;16.85;13.68;;;29.30;90.50;;;;;;4970140;28;20042;-64
2022/05/18 13:11:13;;;;;;;20.80;14.55;;;29.20;90.10;;;;;;4971992;28;20042;-65
2022/05/18 13:14:00;;;;;;;16.27;13.48;;;29.30;90.90;;;;;;4953895;28;20102;-64
2022/05/18 13:16:38;;;;;;;19.48;14.52;;;29.60;88.90;;;;;;4948604;28;20052;-63
2022/05/18 13:19:14;;;;;;;21.58;15.27;;;29.70;86.80;;;;;;4952419;29;20411;-64
2022/05/18 13:21:44;;;;;;;26.27;18.90;;;29.60;89.00;;;;;;4951593;29;20074;-65
2022/05/18 13:24:39;;;;;;;23.02;19.40;;;29.30;90.60;;;;;;4949383;28;20058;-64
2022/05/18 13:27:15;;;;;;;22.25;18.85;;;28.90;91.30;;;;;;4947513;28;20431;-67
2022/05/18 13:29:42;;;;;;;21.20;18.92;;;29.00;92.00;;;;;;4951078;28;20114;-69
2022/05/18 13:32:11;;;;;;;22.63;19.33;;;29.20;92.10;;;;;;4944670;28;20078;-67
2022/05/18 13:34:43;;;;;;;23.70;19.60;;;29.10;91.20;;;;;;4951643;29;20403;-66
2022/05/18 13:37:09;;;;;;;26.88;22.23;;;29.10;91.90;;;;;;4931039;29;20051;-64
2022/05/18 13:39:39;;;;;;;28.92;22.27;;;28.90;92.50;;;;;;4947347;28;20046;-67
2022/05/18 13:42:21;;;;;;;25.42;21.25;;;28.70;92.80;;;;;;4951113;28;20036;-68
2022/05/18 13:44:52;;;;;;;25.30;21.38;;;28.60;93.80;;;;;;4952054;29;20054;-66
2022/05/18 13:47:25;;;;;;;24.95;21.38;;;28.30;94.10;;;;;;4952273;29;20059;-66
2022/05/18 13:49:50;;;;;;;30.02;21.98;;;28.00;95.10;;;;;;4949566;28;20043;-67
2022/05/18 13:52:23;;;;;;;28.45;20.98;;;27.80;94.50;;;;;;4951947;29;20582;-67
2022/05/18 13:54:54;;;;;;;23.85;20.73;;;27.90;96.10;;;;;;4952064;29;20053;-67
2022/05/18 13:57:21;;;;;;;27.08;20.85;;;28.10;95.40;;;;;;4952202;29;20043;-67
2022/05/18 13:59:52;;;;;;;25.73;21.92;;;28.30;96.20;;;;;;4952023;28;20035;-66
2022/05/18 14:02:23;;;;;;;;;;;28.30;95.70;;;;;;4943930;28;20074;-66
2022/05/18 14:04:53;;;;;;;28.80;20.42;;;28.10;95.80;;;;;;4951679;29;19918;-66
2022/05/18 14:07:24;;;;;;;24.60;21.00;;;28.20;96.50;;;;;;4944850;29;20381;-66
2022/05/18 14:09:50;;;;;;;25.13;21.08;;;28.30;96.80;;;;;;4952164;29;20495;-66
2022/05/18 14:12:22;;;;;;;23.55;20.00;;;28.50;95.50;;;;;;4962407;28;20047;-68
2022/05/18 14:14:54;;;;;;;25.65;18.92;;;28.70;95.10;;;;;;4970311;28;20551;-68
2022/05/18 14:17:29;;;;;;;21.40;18.55;;;29.00;95.30;;;;;;4971194;28;20043;-68
2022/05/18 14:20:01;;;;;;;22.85;18.30;;;29.00;94.60;;;;;;4970854;28;20114;-67
2022/05/18 14:22:32;;;;;;;25.30;19.70;;;28.80;95.20;;;;;;4952077;28;20049;-68
2022/05/18 14:25:11;;;;;;;25.17;19.25;;;28.60;94.70;;;;;;4970574;28;20487;-67
2022/05/18 14:27:57;;;;;;;23.67;19.65;;;28.70;95.50;;;;;;4971266;28;20395;-66
2022/05/18 14:30:26;;;;;;;23.40;19.08;;;28.90;94.70;;;;;;4965892;28;20043;-67
2022/05/18 14:33:01;;;;;;;22.52;20.13;;;29.10;95.60;;;;;;4967434;28;20106;-67
2022/05/18 14:35:37;;;;;;;27.17;19.27;;;29.00;94.20;;;;;;4968102;28;20118;-66
2022/05/18 14:38:07;;;;;;;22.08;17.80;;;28.60;94.40;;;;;;4962780;28;20050;-67
2022/05/18 14:40:45;;;;;;;23.38;18.55;;;28.60;95.40;;;;;;4968708;28;20049;-67